sensor_id;sensor_type;location;lat;lon;timestamp;temperature;humidity
42907;DHT22;28552;51.146;6.576;2024-01-10T00:01:53;-5.70;99.90
42907;DHT22;28552;51.146;6.576;2024-01-10T00:04:54;-5.70;99.90
42907;DHT22;28552;51.146;6.576;2024-01-10T00:07:54;-5.60;99.90
42907;DHT22;28552;51.146;6.576;2024-01-10T00:10:55;-5.60;99.90
42907;DHT22;28552;51.146;6.576;2024-01-10T00:13:55;-5.70;99.90
42907;DHT22;28552;51.146;6.576;2024-01-10T00:17:00;-5.70;99.90
42907;DHT22;28552;51.146;6.576;2024-01-10T00:20:00;-5.70;99.90
42907;DHT22;28552;51.146;6.576;2024-01-10T00:23:01;-5.80;99.90
42907;DHT22;28552;51.146;6.576;2024-01-10T00:26:01;-5.80;99.90
42907;DHT22;28552;51.146;6.576;2024-01-10T00:29:02;-5.80;99.90
42907;DHT22;28552;51.146;6.576;2024-01-10T00:32:02;-5.80;99.90
42907;DHT22;28552;51.146;6.576;2024-01-10T00:35:03;-5.90;99.90
42907;DHT22;28552;51.146;6.576;2024-01-10T00:38:04;-5.90;99.90
42907;DHT22;28552;51.146;6.576;2024-01-10T00:41:04;-6.00;99.90
42907;DHT22;28552;51.146;6.576;2024-01-10T00:44:05;-6.10;99.90
42907;DHT22;28552;51.146;6.576;2024-01-10T00:47:05;-6.10;99.90
42907;DHT22;28552;51.146;6.576;2024-01-10T00:50:06;-6.20;99.90
42907;DHT22;28552;51.146;6.576;2024-01-10T00:53:07;-6.20;99.90
42907;DHT22;28552;51.146;6.576;2024-01-10T00:56:07;-6.30;99.90
42907;DHT22;28552;51.146;6.576;2024-01-10T00:59:08;-6.30;99.90
42907;DHT22;28552;51.146;6.576;2024-01-10T01:02:09;-6.30;99.90
42907;DHT22;28552;51.146;6.576;2024-01-10T01:05:09;-6.30;99.90
42907;DHT22;28552;51.146;6.576;2024-01-10T01:08:10;-6.30;99.90
42907;DHT22;28552;51.146;6.576;2024-01-10T01:11:10;-6.30;99.90
42907;DHT22;28552;51.146;6.576;2024-01-10T01:14:12;-6.30;99.90
42907;DHT22;28552;51.146;6.576;2024-01-10T01:17:13;-6.40;99.90
42907;DHT22;28552;51.146;6.576;2024-01-10T01:20:13;-6.40;99.90
42907;DHT22;28552;51.146;6.576;2024-01-10T01:23:14;-6.30;99.90
42907;DHT22;28552;51.146;6.576;2024-01-10T01:26:15;-6.30;99.90
42907;DHT22;28552;51.146;6.576;2024-01-10T01:29:15;-6.30;99.90
42907;DHT22;28552;51.146;6.576;2024-01-10T01:32:16;-6.30;99.90
42907;DHT22;28552;51.146;6.576;2024-01-10T01:35:16;-6.40;99.90
42907;DHT22;28552;51.146;6.576;2024-01-10T01:38:21;-6.40;99.90
42907;DHT22;28552;51.146;6.576;2024-01-10T01:41:22;-6.50;99.90
42907;DHT22;28552;51.146;6.576;2024-01-10T01:44:22;-6.40;99.90
42907;DHT22;28552;51.146;6.576;2024-01-10T01:47:23;-6.50;99.90
42907;DHT22;28552;51.146;6.576;2024-01-10T01:50:24;-6.50;99.90
42907;DHT22;28552;51.146;6.576;2024-01-10T01:53:24;-6.50;99.90
42907;DHT22;28552;51.146;6.576;2024-01-10T01:56:25;-6.50;99.90
42907;DHT22;28552;51.146;6.576;2024-01-10T01:59:26;-6.50;99.90
42907;DHT22;28552;51.146;6.576;2024-01-10T02:02:27;-6.50;99.90
42907;DHT22;28552;51.146;6.576;2024-01-10T02:05:29;-6.50;99.90
42907;DHT22;28552;51.146;6.576;2024-01-10T02:08:32;-6.50;99.90
42907;DHT22;28552;51.146;6.576;2024-01-10T02:11:32;-6.40;99.90
42907;DHT22;28552;51.146;6.576;2024-01-10T02:14:33;-6.40;99.90
42907;DHT22;28552;51.146;6.576;2024-01-10T02:17:34;-6.40;99.90
42907;DHT22;28552;51.146;6.576;2024-01-10T02:20:35;-6.40;99.90
42907;DHT22;28552;51.146;6.576;2024-01-10T02:23:35;-6.40;99.90
42907;DHT22;28552;51.146;6.576;2024-01-10T02:26:36;-6.40;99.90
42907;DHT22;28552;51.146;6.576;2024-01-10T02:29:36;-6.40;99.90
42907;DHT22;28552;51.146;6.576;2024-01-10T02:32:37;-6.40;99.90
42907;DHT22;28552;51.146;6.576;2024-01-10T02:35:37;-6.40;99.90
42907;DHT22;28552;51.146;6.576;2024-01-10T02:38:38;-6.40;99.90
42907;DHT22;28552;51.146;6.576;2024-01-10T02:41:38;-6.40;99.90
42907;DHT22;28552;51.146;6.576;2024-01-10T02:44:39;-6.50;99.90
42907;DHT22;28552;51.146;6.576;2024-01-10T02:47:40;-6.50;99.90
42907;DHT22;28552;51.146;6.576;2024-01-10T02:50:40;-6.50;99.90
42907;DHT22;28552;51.146;6.576;2024-01-10T02:53:41;-6.50;99.90
42907;DHT22;28552;51.146;6.576;2024-01-10T02:56:41;-6.50;99.90
42907;DHT22;28552;51.146;6.576;2024-01-10T02:59:42;-6.60;99.90
42907;DHT22;28552;51.146;6.576;2024-01-10T03:02:42;-6.50;99.90
42907;DHT22;28552;51.146;6.576;2024-01-10T03:05:43;-6.50;99.90
42907;DHT22;28552;51.146;6.576;2024-01-10T03:08:43;-6.60;99.90
42907;DHT22;28552;51.146;6.576;2024-01-10T03:11:44;-6.60;99.90
42907;DHT22;28552;51.146;6.576;2024-01-10T03:14:44;-6.60;99.90
42907;DHT22;28552;51.146;6.576;2024-01-10T03:17:45;-6.60;99.90
42907;DHT22;28552;51.146;6.576;2024-01-10T03:20:46;-6.70;99.90
42907;DHT22;28552;51.146;6.576;2024-01-10T03:23:46;-6.80;99.90
42907;DHT22;28552;51.146;6.576;2024-01-10T03:26:47;-6.90;99.90
42907;DHT22;28552;51.146;6.576;2024-01-10T03:29:48;-6.90;99.90
42907;DHT22;28552;51.146;6.576;2024-01-10T03:32:48;-6.90;99.90
42907;DHT22;28552;51.146;6.576;2024-01-10T03:35:49;-7.00;99.90
42907;DHT22;28552;51.146;6.576;2024-01-10T03:38:49;-6.90;99.90
42907;DHT22;28552;51.146;6.576;2024-01-10T03:41:50;-6.90;99.90
42907;DHT22;28552;51.146;6.576;2024-01-10T03:44:50;-6.90;99.90
42907;DHT22;28552;51.146;6.576;2024-01-10T03:47:51;-6.90;99.90
42907;DHT22;28552;51.146;6.576;2024-01-10T03:50:51;-6.80;99.90
42907;DHT22;28552;51.146;6.576;2024-01-10T03:53:53;-6.80;99.90
42907;DHT22;28552;51.146;6.576;2024-01-10T03:56:55;-6.70;99.90
42907;DHT22;28552;51.146;6.576;2024-01-10T03:59:55;-6.60;99.90
42907;DHT22;28552;51.146;6.576;2024-01-10T04:02:56;-6.60;99.90
42907;DHT22;28552;51.146;6.576;2024-01-10T04:05:57;-6.60;99.90
42907;DHT22;28552;51.146;6.576;2024-01-10T04:08:57;-6.60;99.90
42907;DHT22;28552;51.146;6.576;2024-01-10T04:11:58;-6.60;99.90
42907;DHT22;28552;51.146;6.576;2024-01-10T04:14:58;-6.60;99.90
42907;DHT22;28552;51.146;6.576;2024-01-10T04:17:59;-6.50;99.90
42907;DHT22;28552;51.146;6.576;2024-01-10T04:20:59;-6.60;99.90
42907;DHT22;28552;51.146;6.576;2024-01-10T04:24:00;-6.60;99.90
42907;DHT22;28552;51.146;6.576;2024-01-10T04:27:00;-6.60;99.90
42907;DHT22;28552;51.146;6.576;2024-01-10T04:30:01;-6.70;99.90
42907;DHT22;28552;51.146;6.576;2024-01-10T04:33:01;-6.70;99.90
42907;DHT22;28552;51.146;6.576;2024-01-10T04:36:02;-6.80;99.90
42907;DHT22;28552;51.146;6.576;2024-01-10T04:39:03;-6.80;99.90
42907;DHT22;28552;51.146;6.576;2024-01-10T04:42:04;-6.80;99.90
42907;DHT22;28552;51.146;6.576;2024-01-10T04:45:05;-6.80;99.90
42907;DHT22;28552;51.146;6.576;2024-01-10T04:48:07;-6.80;99.90
42907;DHT22;28552;51.146;6.576;2024-01-10T04:51:08;-6.90;99.90
42907;DHT22;28552;51.146;6.576;2024-01-10T04:54:09;-6.90;99.90
42907;DHT22;28552;51.146;6.576;2024-01-10T04:57:09;-6.90;99.90
42907;DHT22;28552;51.146;6.576;2024-01-10T05:00:10;-6.90;99.90
42907;DHT22;28552;51.146;6.576;2024-01-10T05:03:11;-6.90;99.90
42907;DHT22;28552;51.146;6.576;2024-01-10T05:06:12;-6.80;99.90
42907;DHT22;28552;51.146;6.576;2024-01-10T05:09:12;-6.90;99.90
42907;DHT22;28552;51.146;6.576;2024-01-10T05:12:14;-6.90;99.90
42907;DHT22;28552;51.146;6.576;2024-01-10T05:15:14;-6.90;99.90
42907;DHT22;28552;51.146;6.576;2024-01-10T05:18:16;-6.90;99.90
42907;DHT22;28552;51.146;6.576;2024-01-10T05:21:16;-6.90;99.90
42907;DHT22;28552;51.146;6.576;2024-01-10T05:24:17;-6.90;99.90
42907;DHT22;28552;51.146;6.576;2024-01-10T05:27:19;-6.90;99.90
42907;DHT22;28552;51.146;6.576;2024-01-10T05:30:20;-6.80;99.90
42907;DHT22;28552;51.146;6.576;2024-01-10T05:33:20;-6.90;99.90
42907;DHT22;28552;51.146;6.576;2024-01-10T05:36:22;-6.90;99.90
42907;DHT22;28552;51.146;6.576;2024-01-10T05:39:23;-6.90;99.90
42907;DHT22;28552;51.146;6.576;2024-01-10T05:42:24;-6.90;99.90
42907;DHT22;28552;51.146;6.576;2024-01-10T05:45:25;-6.90;99.90
42907;DHT22;28552;51.146;6.576;2024-01-10T05:48:25;-6.80;99.90
42907;DHT22;28552;51.146;6.576;2024-01-10T05:51:26;-6.90;99.90
42907;DHT22;28552;51.146;6.576;2024-01-10T05:54:26;-6.90;99.90
42907;DHT22;28552;51.146;6.576;2024-01-10T05:57:27;-6.80;99.90
42907;DHT22;28552;51.146;6.576;2024-01-10T06:00:28;-6.80;99.90
42907;DHT22;28552;51.146;6.576;2024-01-10T06:03:28;-6.80;99.90
42907;DHT22;28552;51.146;6.576;2024-01-10T06:06:29;-6.80;99.90
42907;DHT22;28552;51.146;6.576;2024-01-10T06:09:29;-6.70;99.90
42907;DHT22;28552;51.146;6.576;2024-01-10T06:12:30;-6.80;99.90
42907;DHT22;28552;51.146;6.576;2024-01-10T06:15:30;-6.70;99.90
42907;DHT22;28552;51.146;6.576;2024-01-10T06:18:31;-6.80;99.90
42907;DHT22;28552;51.146;6.576;2024-01-10T06:21:31;-6.80;99.90
42907;DHT22;28552;51.146;6.576;2024-01-10T06:24:32;-6.80;99.90
42907;DHT22;28552;51.146;6.576;2024-01-10T06:27:32;-6.90;99.90
42907;DHT22;28552;51.146;6.576;2024-01-10T06:30:33;-6.90;99.90
42907;DHT22;28552;51.146;6.576;2024-01-10T06:33:35;-6.90;99.90
42907;DHT22;28552;51.146;6.576;2024-01-10T06:36:36;-6.80;99.90
42907;DHT22;28552;51.146;6.576;2024-01-10T06:39:37;-6.80;99.90
42907;DHT22;28552;51.146;6.576;2024-01-10T06:42:37;-6.80;99.90
42907;DHT22;28552;51.146;6.576;2024-01-10T06:45:39;-6.80;99.90
42907;DHT22;28552;51.146;6.576;2024-01-10T06:48:40;-6.80;99.90
42907;DHT22;28552;51.146;6.576;2024-01-10T06:51:40;-6.80;99.90
42907;DHT22;28552;51.146;6.576;2024-01-10T06:54:41;-6.80;99.90
42907;DHT22;28552;51.146;6.576;2024-01-10T06:57:41;-6.80;99.90
42907;DHT22;28552;51.146;6.576;2024-01-10T07:00:42;-6.80;99.90
42907;DHT22;28552;51.146;6.576;2024-01-10T07:03:42;-6.80;99.90
42907;DHT22;28552;51.146;6.576;2024-01-10T07:06:45;-6.80;99.90
42907;DHT22;28552;51.146;6.576;2024-01-10T07:09:45;-6.70;99.90
42907;DHT22;28552;51.146;6.576;2024-01-10T07:12:46;-6.70;99.90
42907;DHT22;28552;51.146;6.576;2024-01-10T07:15:46;-6.70;99.90
42907;DHT22;28552;51.146;6.576;2024-01-10T07:18:47;-6.70;99.90
42907;DHT22;28552;51.146;6.576;2024-01-10T07:21:50;-6.70;99.90
42907;DHT22;28552;51.146;6.576;2024-01-10T07:24:51;-6.70;99.90
42907;DHT22;28552;51.146;6.576;2024-01-10T07:27:52;-6.70;99.90
42907;DHT22;28552;51.146;6.576;2024-01-10T07:30:52;-6.70;99.90
42907;DHT22;28552;51.146;6.576;2024-01-10T07:33:53;-6.60;99.90
42907;DHT22;28552;51.146;6.576;2024-01-10T07:36:55;-6.60;99.90
42907;DHT22;28552;51.146;6.576;2024-01-10T07:39:55;-6.60;99.90
42907;DHT22;28552;51.146;6.576;2024-01-10T07:42:57;-6.60;99.90
42907;DHT22;28552;51.146;6.576;2024-01-10T07:45:58;-6.50;99.90
42907;DHT22;28552;51.146;6.576;2024-01-10T07:48:58;-6.50;99.90
42907;DHT22;28552;51.146;6.576;2024-01-10T07:52:01;-6.50;99.90
42907;DHT22;28552;51.146;6.576;2024-01-10T07:55:02;-6.50;99.90
42907;DHT22;28552;51.146;6.576;2024-01-10T07:58:05;-6.50;99.90
42907;DHT22;28552;51.146;6.576;2024-01-10T08:01:06;-6.40;99.90
42907;DHT22;28552;51.146;6.576;2024-01-10T08:04:06;-6.40;99.90
42907;DHT22;28552;51.146;6.576;2024-01-10T08:07:08;-6.40;99.90
42907;DHT22;28552;51.146;6.576;2024-01-10T08:10:09;-6.40;99.90
42907;DHT22;28552;51.146;6.576;2024-01-10T08:13:10;-6.40;99.90
42907;DHT22;28552;51.146;6.576;2024-01-10T08:16:11;-6.40;99.90
42907;DHT22;28552;51.146;6.576;2024-01-10T08:19:11;-6.40;99.90
42907;DHT22;28552;51.146;6.576;2024-01-10T08:22:12;-6.40;99.90
42907;DHT22;28552;51.146;6.576;2024-01-10T08:25:13;-6.50;99.90
42907;DHT22;28552;51.146;6.576;2024-01-10T08:28:16;-6.40;99.90
42907;DHT22;28552;51.146;6.576;2024-01-10T08:31:17;-6.40;99.90
42907;DHT22;28552;51.146;6.576;2024-01-10T08:34:17;-6.40;99.90
42907;DHT22;28552;51.146;6.576;2024-01-10T08:37:18;-6.40;99.90
42907;DHT22;28552;51.146;6.576;2024-01-10T08:40:19;-6.40;99.90
42907;DHT22;28552;51.146;6.576;2024-01-10T08:43:21;-6.30;99.90
42907;DHT22;28552;51.146;6.576;2024-01-10T08:46:22;-6.30;99.90
42907;DHT22;28552;51.146;6.576;2024-01-10T08:49:22;-6.30;99.90
42907;DHT22;28552;51.146;6.576;2024-01-10T08:52:23;-6.20;99.90
42907;DHT22;28552;51.146;6.576;2024-01-10T08:55:24;-6.20;99.90
42907;DHT22;28552;51.146;6.576;2024-01-10T08:58:24;-6.10;99.90
42907;DHT22;28552;51.146;6.576;2024-01-10T09:01:25;-6.10;99.90
42907;DHT22;28552;51.146;6.576;2024-01-10T09:04:25;-6.00;99.90
42907;DHT22;28552;51.146;6.576;2024-01-10T09:07:26;-5.90;99.90
42907;DHT22;28552;51.146;6.576;2024-01-10T09:10:27;-5.80;99.90
42907;DHT22;28552;51.146;6.576;2024-01-10T09:13:28;-5.80;99.90
42907;DHT22;28552;51.146;6.576;2024-01-10T09:16:29;-5.70;99.90
42907;DHT22;28552;51.146;6.576;2024-01-10T09:19:30;-5.60;99.90
42907;DHT22;28552;51.146;6.576;2024-01-10T09:22:31;-5.60;99.90
42907;DHT22;28552;51.146;6.576;2024-01-10T09:25:31;-5.50;99.90
42907;DHT22;28552;51.146;6.576;2024-01-10T09:28:32;-5.50;99.90
42907;DHT22;28552;51.146;6.576;2024-01-10T09:31:32;-5.40;99.90
42907;DHT22;28552;51.146;6.576;2024-01-10T09:34:33;-5.30;99.90
42907;DHT22;28552;51.146;6.576;2024-01-10T09:37:33;-5.30;99.90
42907;DHT22;28552;51.146;6.576;2024-01-10T09:40:34;-5.20;99.90
42907;DHT22;28552;51.146;6.576;2024-01-10T09:43:35;-5.10;99.90
42907;DHT22;28552;51.146;6.576;2024-01-10T09:46:38;-5.00;99.90
42907;DHT22;28552;51.146;6.576;2024-01-10T09:49:41;-4.90;99.90
42907;DHT22;28552;51.146;6.576;2024-01-10T09:52:50;-4.80;99.90
42907;DHT22;28552;51.146;6.576;2024-01-10T09:55:51;-4.70;99.90
42907;DHT22;28552;51.146;6.576;2024-01-10T09:58:53;-4.70;99.90
42907;DHT22;28552;51.146;6.576;2024-01-10T10:01:57;-4.60;99.90
42907;DHT22;28552;51.146;6.576;2024-01-10T10:05:07;-4.50;99.90
42907;DHT22;28552;51.146;6.576;2024-01-10T10:08:10;-4.50;99.90
42907;DHT22;28552;51.146;6.576;2024-01-10T10:11:12;-4.40;99.90
42907;DHT22;28552;51.146;6.576;2024-01-10T10:14:15;-4.30;99.90
42907;DHT22;28552;51.146;6.576;2024-01-10T10:17:17;-4.20;99.90
42907;DHT22;28552;51.146;6.576;2024-01-10T10:20:27;-4.10;99.90
42907;DHT22;28552;51.146;6.576;2024-01-10T10:23:31;-4.10;99.90
42907;DHT22;28552;51.146;6.576;2024-01-10T10:26:33;-4.00;99.90
42907;DHT22;28552;51.146;6.576;2024-01-10T10:29:33;-3.90;99.90
42907;DHT22;28552;51.146;6.576;2024-01-10T10:32:35;-3.80;99.90
42907;DHT22;28552;51.146;6.576;2024-01-10T10:35:36;-3.80;99.90
42907;DHT22;28552;51.146;6.576;2024-01-10T10:38:37;-3.70;99.90
42907;DHT22;28552;51.146;6.576;2024-01-10T10:41:37;-3.60;99.90
42907;DHT22;28552;51.146;6.576;2024-01-10T10:44:38;-3.60;99.90
42907;DHT22;28552;51.146;6.576;2024-01-10T10:47:41;-3.50;99.90
42907;DHT22;28552;51.146;6.576;2024-01-10T10:50:50;-3.40;99.90
42907;DHT22;28552;51.146;6.576;2024-01-10T10:53:55;-3.30;99.90
42907;DHT22;28552;51.146;6.576;2024-01-10T10:56:58;-3.20;99.90
42907;DHT22;28552;51.146;6.576;2024-01-10T11:00:00;-3.10;99.90
42907;DHT22;28552;51.146;6.576;2024-01-10T11:03:02;-3.10;99.90
42907;DHT22;28552;51.146;6.576;2024-01-10T11:06:04;-3.00;99.90
42907;DHT22;28552;51.146;6.576;2024-01-10T11:09:07;-2.90;99.90
42907;DHT22;28552;51.146;6.576;2024-01-10T11:12:34;-2.80;99.90
42907;DHT22;28552;51.146;6.576;2024-01-10T11:16:13;-2.70;99.90
42907;DHT22;28552;51.146;6.576;2024-01-10T11:19:25;-2.70;99.90
42907;DHT22;28552;51.146;6.576;2024-01-10T11:26:02;-2.60;99.90
42907;DHT22;28552;51.146;6.576;2024-01-10T11:29:05;-2.60;99.90
42907;DHT22;28552;51.146;6.576;2024-01-10T11:32:12;-2.50;99.90
42907;DHT22;28552;51.146;6.576;2024-01-10T11:35:20;-2.50;99.90
42907;DHT22;28552;51.146;6.576;2024-01-10T11:38:20;-2.40;99.90
42907;DHT22;28552;51.146;6.576;2024-01-10T11:41:23;-2.40;99.90
42907;DHT22;28552;51.146;6.576;2024-01-10T11:44:27;-2.40;99.90
42907;DHT22;28552;51.146;6.576;2024-01-10T11:47:28;-2.40;99.90
42907;DHT22;28552;51.146;6.576;2024-01-10T11:50:29;-2.40;99.90
42907;DHT22;28552;51.146;6.576;2024-01-10T11:53:40;-2.40;99.90
42907;DHT22;28552;51.146;6.576;2024-01-10T11:56:43;-2.40;99.90
42907;DHT22;28552;51.146;6.576;2024-01-10T11:59:45;-2.30;99.90
42907;DHT22;28552;51.146;6.576;2024-01-10T12:02:46;-2.40;99.90
42907;DHT22;28552;51.146;6.576;2024-01-10T12:05:48;-2.40;99.90
42907;DHT22;28552;51.146;6.576;2024-01-10T12:08:49;-2.40;99.90
42907;DHT22;28552;51.146;6.576;2024-01-10T12:11:50;-2.40;99.90
42907;DHT22;28552;51.146;6.576;2024-01-10T12:14:51;-2.30;99.90
42907;DHT22;28552;51.146;6.576;2024-01-10T12:17:52;-2.30;99.90
42907;DHT22;28552;51.146;6.576;2024-01-10T12:20:52;-2.30;99.90
42907;DHT22;28552;51.146;6.576;2024-01-10T12:23:53;-2.30;99.90
42907;DHT22;28552;51.146;6.576;2024-01-10T12:26:53;-2.30;99.90
42907;DHT22;28552;51.146;6.576;2024-01-10T12:29:55;-2.30;99.90
42907;DHT22;28552;51.146;6.576;2024-01-10T12:32:59;-2.30;99.90
42907;DHT22;28552;51.146;6.576;2024-01-10T12:36:09;-2.30;99.90
42907;DHT22;28552;51.146;6.576;2024-01-10T12:39:11;-2.20;99.90
42907;DHT22;28552;51.146;6.576;2024-01-10T12:42:12;-2.30;99.90
42907;DHT22;28552;51.146;6.576;2024-01-10T12:45:22;-2.20;99.90
42907;DHT22;28552;51.146;6.576;2024-01-10T12:48:22;-2.20;99.90
42907;DHT22;28552;51.146;6.576;2024-01-10T12:51:23;-2.10;99.90
42907;DHT22;28552;51.146;6.576;2024-01-10T12:54:23;-2.10;99.90
42907;DHT22;28552;51.146;6.576;2024-01-10T12:57:24;-2.00;99.90
42907;DHT22;28552;51.146;6.576;2024-01-10T13:00:24;-1.90;99.90
42907;DHT22;28552;51.146;6.576;2024-01-10T13:03:25;-1.90;99.90
42907;DHT22;28552;51.146;6.576;2024-01-10T13:06:25;-1.80;99.90
42907;DHT22;28552;51.146;6.576;2024-01-10T13:09:26;-1.70;99.90
42907;DHT22;28552;51.146;6.576;2024-01-10T13:12:26;-1.60;99.90
42907;DHT22;28552;51.146;6.576;2024-01-10T13:15:27;-1.60;99.90
42907;DHT22;28552;51.146;6.576;2024-01-10T13:18:28;-1.50;99.90
42907;DHT22;28552;51.146;6.576;2024-01-10T13:21:29;-1.50;99.90
42907;DHT22;28552;51.146;6.576;2024-01-10T13:24:30;-1.50;99.90
42907;DHT22;28552;51.146;6.576;2024-01-10T13:27:31;-1.50;99.90
42907;DHT22;28552;51.146;6.576;2024-01-10T13:30:32;-1.40;99.90
42907;DHT22;28552;51.146;6.576;2024-01-10T13:33:32;-1.30;99.90
42907;DHT22;28552;51.146;6.576;2024-01-10T13:36:33;-1.30;99.90
42907;DHT22;28552;51.146;6.576;2024-01-10T13:39:33;-1.20;99.90
42907;DHT22;28552;51.146;6.576;2024-01-10T13:42:34;-1.10;99.90
42907;DHT22;28552;51.146;6.576;2024-01-10T13:45:34;-1.00;99.90
42907;DHT22;28552;51.146;6.576;2024-01-10T13:48:35;-1.00;99.90
42907;DHT22;28552;51.146;6.576;2024-01-10T13:51:36;-0.90;99.90
42907;DHT22;28552;51.146;6.576;2024-01-10T13:54:37;-0.90;99.90
42907;DHT22;28552;51.146;6.576;2024-01-10T13:57:37;-0.80;99.90
42907;DHT22;28552;51.146;6.576;2024-01-10T14:00:38;-0.80;99.90
42907;DHT22;28552;51.146;6.576;2024-01-10T14:03:38;-0.70;99.90
42907;DHT22;28552;51.146;6.576;2024-01-10T14:06:39;-0.70;99.90
42907;DHT22;28552;51.146;6.576;2024-01-10T14:09:39;-0.60;99.90
42907;DHT22;28552;51.146;6.576;2024-01-10T14:12:40;-0.60;99.90
42907;DHT22;28552;51.146;6.576;2024-01-10T14:15:40;-0.60;99.90
42907;DHT22;28552;51.146;6.576;2024-01-10T14:18:42;-0.60;99.90
42907;DHT22;28552;51.146;6.576;2024-01-10T14:21:43;-0.60;99.90
42907;DHT22;28552;51.146;6.576;2024-01-10T14:24:44;-0.60;99.90
42907;DHT22;28552;51.146;6.576;2024-01-10T14:27:45;-0.60;99.90
42907;DHT22;28552;51.146;6.576;2024-01-10T14:30:46;-0.50;99.90
42907;DHT22;28552;51.146;6.576;2024-01-10T14:33:46;-0.50;99.90
42907;DHT22;28552;51.146;6.576;2024-01-10T14:36:47;-0.50;99.90
42907;DHT22;28552;51.146;6.576;2024-01-10T14:39:47;-0.50;99.90
42907;DHT22;28552;51.146;6.576;2024-01-10T14:42:48;-0.50;99.90
42907;DHT22;28552;51.146;6.576;2024-01-10T14:45:49;-0.60;99.90
42907;DHT22;28552;51.146;6.576;2024-01-10T14:48:49;-0.60;99.90
42907;DHT22;28552;51.146;6.576;2024-01-10T14:51:50;-0.70;99.90
42907;DHT22;28552;51.146;6.576;2024-01-10T14:54:51;-0.70;99.90
42907;DHT22;28552;51.146;6.576;2024-01-10T14:57:51;-0.70;99.90
42907;DHT22;28552;51.146;6.576;2024-01-10T15:00:53;-0.80;99.90
42907;DHT22;28552;51.146;6.576;2024-01-10T15:03:53;-0.80;99.90
42907;DHT22;28552;51.146;6.576;2024-01-10T15:06:54;-0.90;99.90
42907;DHT22;28552;51.146;6.576;2024-01-10T15:09:57;-0.90;99.90
42907;DHT22;28552;51.146;6.576;2024-01-10T15:12:59;-1.00;99.90
42907;DHT22;28552;51.146;6.576;2024-01-10T15:16:00;-1.00;99.90
42907;DHT22;28552;51.146;6.576;2024-01-10T15:19:01;-1.10;99.90
42907;DHT22;28552;51.146;6.576;2024-01-10T15:22:02;-1.10;99.90
42907;DHT22;28552;51.146;6.576;2024-01-10T15:25:05;-1.20;99.90
42907;DHT22;28552;51.146;6.576;2024-01-10T15:28:05;-1.20;99.90
42907;DHT22;28552;51.146;6.576;2024-01-10T15:31:06;-1.30;99.90
42907;DHT22;28552;51.146;6.576;2024-01-10T15:34:14;-1.30;99.90
42907;DHT22;28552;51.146;6.576;2024-01-10T15:37:14;-1.30;99.90
42907;DHT22;28552;51.146;6.576;2024-01-10T15:40:15;-1.40;99.90
42907;DHT22;28552;51.146;6.576;2024-01-10T15:43:16;-1.40;99.90
42907;DHT22;28552;51.146;6.576;2024-01-10T15:46:18;-1.40;99.90
42907;DHT22;28552;51.146;6.576;2024-01-10T15:49:20;-1.50;99.90
42907;DHT22;28552;51.146;6.576;2024-01-10T15:52:21;-1.50;99.90
42907;DHT22;28552;51.146;6.576;2024-01-10T15:55:26;-1.50;99.90
42907;DHT22;28552;51.146;6.576;2024-01-10T15:58:27;-1.50;99.90
42907;DHT22;28552;51.146;6.576;2024-01-10T16:01:28;-1.60;99.90
42907;DHT22;28552;51.146;6.576;2024-01-10T16:04:28;-1.60;99.90
42907;DHT22;28552;51.146;6.576;2024-01-10T16:07:29;-1.70;99.90
42907;DHT22;28552;51.146;6.576;2024-01-10T16:10:29;-1.90;99.90
42907;DHT22;28552;51.146;6.576;2024-01-10T16:13:30;-2.00;99.90
42907;DHT22;28552;51.146;6.576;2024-01-10T16:16:30;-2.10;99.90
42907;DHT22;28552;51.146;6.576;2024-01-10T16:19:33;-2.20;99.90
42907;DHT22;28552;51.146;6.576;2024-01-10T16:22:33;-2.40;99.90
42907;DHT22;28552;51.146;6.576;2024-01-10T16:25:34;-2.50;99.90
42907;DHT22;28552;51.146;6.576;2024-01-10T16:28:34;-2.60;99.90
42907;DHT22;28552;51.146;6.576;2024-01-10T16:31:35;-2.60;99.90
42907;DHT22;28552;51.146;6.576;2024-01-10T16:34:37;-2.70;99.90
42907;DHT22;28552;51.146;6.576;2024-01-10T16:37:38;-2.80;99.90
42907;DHT22;28552;51.146;6.576;2024-01-10T16:40:38;-2.90;99.90
42907;DHT22;28552;51.146;6.576;2024-01-10T16:43:39;-2.90;99.90
42907;DHT22;28552;51.146;6.576;2024-01-10T16:46:39;-3.00;99.90
42907;DHT22;28552;51.146;6.576;2024-01-10T16:49:40;-3.10;99.90
42907;DHT22;28552;51.146;6.576;2024-01-10T16:52:40;-3.10;99.90
42907;DHT22;28552;51.146;6.576;2024-01-10T16:55:41;-3.20;99.90
42907;DHT22;28552;51.146;6.576;2024-01-10T16:58:42;-3.20;99.90
42907;DHT22;28552;51.146;6.576;2024-01-10T17:01:42;-3.20;99.90
42907;DHT22;28552;51.146;6.576;2024-01-10T17:04:43;-3.30;99.90
42907;DHT22;28552;51.146;6.576;2024-01-10T17:07:43;-3.40;99.90
42907;DHT22;28552;51.146;6.576;2024-01-10T17:10:44;-3.40;99.90
42907;DHT22;28552;51.146;6.576;2024-01-10T17:13:44;-3.40;99.90
42907;DHT22;28552;51.146;6.576;2024-01-10T17:16:45;-3.50;99.90
42907;DHT22;28552;51.146;6.576;2024-01-10T17:19:46;-3.50;99.90
42907;DHT22;28552;51.146;6.576;2024-01-10T17:22:46;-3.60;99.90
42907;DHT22;28552;51.146;6.576;2024-01-10T17:25:47;-3.60;99.90
42907;DHT22;28552;51.146;6.576;2024-01-10T17:28:48;-3.70;99.90
42907;DHT22;28552;51.146;6.576;2024-01-10T17:31:48;-3.70;99.90
42907;DHT22;28552;51.146;6.576;2024-01-10T17:34:49;-3.70;99.90
42907;DHT22;28552;51.146;6.576;2024-01-10T17:37:50;-3.70;99.90
42907;DHT22;28552;51.146;6.576;2024-01-10T17:40:52;-3.80;99.90
42907;DHT22;28552;51.146;6.576;2024-01-10T17:43:54;-3.80;99.90
42907;DHT22;28552;51.146;6.576;2024-01-10T17:46:55;-3.90;99.90
42907;DHT22;28552;51.146;6.576;2024-01-10T17:49:55;-3.90;99.90
42907;DHT22;28552;51.146;6.576;2024-01-10T17:52:56;-3.90;99.90
42907;DHT22;28552;51.146;6.576;2024-01-10T17:55:57;-3.90;99.90
42907;DHT22;28552;51.146;6.576;2024-01-10T17:58:57;-4.00;99.90
42907;DHT22;28552;51.146;6.576;2024-01-10T18:01:58;-4.00;99.90
42907;DHT22;28552;51.146;6.576;2024-01-10T18:04:59;-4.10;99.90
42907;DHT22;28552;51.146;6.576;2024-01-10T18:08:00;-4.10;99.90
42907;DHT22;28552;51.146;6.576;2024-01-10T18:11:01;-4.10;99.90
42907;DHT22;28552;51.146;6.576;2024-01-10T18:14:01;-4.20;99.90
42907;DHT22;28552;51.146;6.576;2024-01-10T18:17:02;-4.20;99.90
42907;DHT22;28552;51.146;6.576;2024-01-10T18:20:04;-4.30;99.90
42907;DHT22;28552;51.146;6.576;2024-01-10T18:23:05;-4.30;99.90
42907;DHT22;28552;51.146;6.576;2024-01-10T18:26:06;-4.30;99.90
42907;DHT22;28552;51.146;6.576;2024-01-10T18:29:07;-4.30;99.90
42907;DHT22;28552;51.146;6.576;2024-01-10T18:32:08;-4.40;99.90
42907;DHT22;28552;51.146;6.576;2024-01-10T18:35:08;-4.40;99.90
42907;DHT22;28552;51.146;6.576;2024-01-10T18:38:09;-4.50;99.90
42907;DHT22;28552;51.146;6.576;2024-01-10T18:41:10;-4.50;99.90
42907;DHT22;28552;51.146;6.576;2024-01-10T18:44:11;-4.50;99.90
42907;DHT22;28552;51.146;6.576;2024-01-10T18:47:12;-4.60;99.90
42907;DHT22;28552;51.146;6.576;2024-01-10T18:50:12;-4.60;99.90
42907;DHT22;28552;51.146;6.576;2024-01-10T18:53:13;-4.60;99.90
42907;DHT22;28552;51.146;6.576;2024-01-10T18:56:15;-4.60;99.90
42907;DHT22;28552;51.146;6.576;2024-01-10T18:59:15;-4.60;99.90
42907;DHT22;28552;51.146;6.576;2024-01-10T19:02:16;-4.60;99.90
42907;DHT22;28552;51.146;6.576;2024-01-10T19:05:17;-4.70;99.90
42907;DHT22;28552;51.146;6.576;2024-01-10T19:08:18;-4.80;99.90